KSIK

Sikeston Memorial Municipal Airport

Sikeston, Missouri, USA
METAR KSIK 110415Z AUTO 00000KT 10SM CLR M03/M05 A3033 RMK AO2
Observed Flight Rules
Dec-11 @ 04:15 UTC (19 minutes ago) Visual Flight Rules
Visibility Clouds
10 miles
  • Clear skies
Temperatures Readings
Current -3°C / 27°F
Dewpoint -5°C / 23°F
Humidity 86%
Altimeter 30.33" Hg
Pressure 1027 hPa
Elevation 96
METAR KSIK 110415Z AUTO 00000KT 10SM CLR M03/M05 A3033 RMK AO2
Observed Flight Rules
Dec-11 @ 04:15 UTC
(19 minutes ago)
VFR
Clouds
  • Clear skies
Temperature Dewpoint
-3°C / 27°F -5°C / 23°F
Humidity Altimeter Pressure
86% 30.33" Hg 1027 hPa